Time;durP1;ratioP1;P1;durP2;ratioP2;P2;SDS_P1;SDS_P2;PMS_P1;PMS_P2;Temp;Humidity;BMP_temperature;BMP_pressure;BME280_temperature;BME280_humidity;BME280_pressure;Samples;Min_cycle;Max_cycle;Signal;HPM_P1;HPM_P2
2021/01/25 00:01:25;;;;;;;11.70;7.17;;;;;;;;;;5054627;28;20568;-75
2021/01/25 00:03:52;;;;;;;19.43;7.20;;;;;;;;;;5054759;28;20458;-75
2021/01/25 00:06:19;;;;;;;14.03;7.67;;;;;;;;;;5053147;28;20471;-74
2021/01/25 00:08:47;;;;;;;7.47;5.97;;;;;;;;;;5053469;28;21116;-75
2021/01/25 00:11:15;;;;;;;9.37;5.70;;;;;;;;;;5054521;28;20531;-75
2021/01/25 00:13:43;;;;;;;11.37;6.27;;;;;;;;;;5054939;28;20458;-75
2021/01/25 00:16:10;;;;;;;10.93;6.60;;;;;;;;;;5054375;28;20824;-75
2021/01/25 00:18:41;;;;;;;11.97;6.67;;;;;;;;;;5054761;28;20454;-75
2021/01/25 00:21:08;;;;;;;10.97;6.40;;;;;;;;;;5057361;28;20730;-75
2021/01/25 00:23:35;;;;;;;9.47;5.70;;;;;;;;;;5058068;28;20551;-74
2021/01/25 00:26:03;;;;;;;11.07;6.87;;;;;;;;;;5058982;28;20921;-75
2021/01/25 00:28:31;;;;;;;10.77;6.87;;;;;;;;;;5058720;28;20464;-75
2021/01/25 00:30:59;;;;;;;9.47;5.80;;;;;;;;;;5058206;28;20501;-73
2021/01/25 00:33:26;;;;;;;11.47;6.33;;;;;;;;;;5056756;28;20442;-73
2021/01/25 00:35:53;;;;;;;10.27;6.40;;;;;;;;;;5041823;28;20506;-73
2021/01/25 00:38:21;;;;;;;9.53;7.07;;;;;;;;;;5058495;28;20523;-73
2021/01/25 00:40:48;;;;;;;11.23;7.50;;;;;;;;;;5058438;28;20501;-73
2021/01/25 00:43:16;;;;;;;11.83;6.43;;;;;;;;;;5058395;28;20783;-73
2021/01/25 00:45:44;;;;;;;11.40;7.30;;;;;;;;;;5058411;28;20462;-73
2021/01/25 00:48:11;;;;;;;9.47;6.50;;;;;;;;;;5058668;28;20464;-73
2021/01/25 00:50:39;;;;;;;11.00;7.00;;;;;;;;;;5058056;28;20519;-73
2021/01/25 00:53:06;;;;;;;10.73;7.60;;;;;;;;;;5058165;28;20469;-73
2021/01/25 00:55:33;;;;;;;12.00;7.43;;;;;;;;;;5058198;28;20528;-73
2021/01/25 00:58:01;;;;;;;11.00;6.67;;;;;;;;;;5057909;28;20488;-73
2021/01/25 01:00:31;;;;;;;9.70;6.53;;;;;;;;;;5057169;28;20496;-73
2021/01/25 01:03:03;;;;;;;14.33;7.20;;;;;;;;;;5057575;28;20521;-74
2021/01/25 01:05:30;;;;;;;9.73;5.90;;;;;;;;;;5058001;28;20860;-73
2021/01/25 01:07:58;;;;;;;9.97;6.33;;;;;;;;;;5057748;28;20458;-73
2021/01/25 01:10:25;;;;;;;13.00;7.63;;;;;;;;;;5057737;28;20896;-73
2021/01/25 01:12:52;;;;;;;10.90;7.00;;;;;;;;;;5057530;28;20450;-72
2021/01/25 01:15:20;;;;;;;11.53;6.27;;;;;;;;;;5057499;28;20472;-73
2021/01/25 01:17:47;;;;;;;14.10;8.30;;;;;;;;;;5057389;28;20458;-74
2021/01/25 01:20:16;;;;;;;14.93;8.10;;;;;;;;;;5057542;28;20494;-73
2021/01/25 01:22:43;;;;;;;10.97;7.43;;;;;;;;;;5057463;28;20866;-73
2021/01/25 01:25:11;;;;;;;9.83;6.30;;;;;;;;;;5056598;28;20457;-73
2021/01/25 01:27:38;;;;;;;15.03;8.70;;;;;;;;;;5056866;28;20454;-73
2021/01/25 01:30:06;;;;;;;12.93;6.23;;;;;;;;;;5057206;28;20477;-73
2021/01/25 01:32:34;;;;;;;8.10;6.63;;;;;;;;;;5057096;28;20852;-73
2021/01/25 01:35:01;;;;;;;11.27;8.07;;;;;;;;;;5057696;28;20624;-73
2021/01/25 01:37:30;;;;;;;13.10;8.13;;;;;;;;;;5057420;28;20552;-73
2021/01/25 01:39:58;;;;;;;13.23;6.87;;;;;;;;;;5058290;28;20914;-73
2021/01/25 01:42:25;;;;;;;11.37;6.53;;;;;;;;;;5057496;28;20454;-72
2021/01/25 01:44:52;;;;;;;12.37;7.17;;;;;;;;;;5056999;28;20482;-72
2021/01/25 01:47:23;;;;;;;13.77;9.00;;;;;;;;;;5057109;28;20724;-72
2021/01/25 01:49:54;;;;;;;12.40;8.07;;;;;;;;;;5056505;28;20450;-73
2021/01/25 01:52:23;;;;;;;12.30;7.43;;;;;;;;;;5056088;28;20446;-72
2021/01/25 01:55:00;;;;;;;15.07;9.60;;;;;;;;;;5056895;28;20469;-73
2021/01/25 01:57:41;;;;;;;15.20;8.50;;;;;;;;;;5056960;28;20457;-73
2021/01/25 02:00:13;;;;;;;12.23;7.83;;;;;;;;;;5056725;28;20588;-74
2021/01/25 02:02:43;;;;;;;11.93;7.30;;;;;;;;;;5034268;28;20528;-72
2021/01/25 02:05:11;;;;;;;12.50;8.77;;;;;;;;;;5056863;28;20462;-73
2021/01/25 02:07:40;;;;;;;20.97;11.73;;;;;;;;;;5057230;28;20493;-73
2021/01/25 02:10:10;;;;;;;14.50;8.80;;;;;;;;;;5055416;28;20569;-74
2021/01/25 02:12:40;;;;;;;14.90;9.37;;;;;;;;;;5056102;28;20735;-73
2021/01/25 02:15:10;;;;;;;12.60;9.17;;;;;;;;;;5055836;28;20478;-73
2021/01/25 02:17:38;;;;;;;11.17;8.07;;;;;;;;;;5056691;28;20601;-72
2021/01/25 02:20:18;;;;;;;16.23;10.03;;;;;;;;;;5057323;28;20500;-73
2021/01/25 02:23:04;;;;;;;12.90;9.83;;;;;;;;;;5055866;28;20514;-72
2021/01/25 02:25:37;;;;;;;12.43;8.57;;;;;;;;;;5050077;28;20763;-72
2021/01/25 02:28:10;;;;;;;17.80;9.90;;;;;;;;;;5059116;28;20468;-73
2021/01/25 02:30:37;;;;;;;15.73;9.10;;;;;;;;;;5058561;28;21019;-73
2021/01/25 02:33:10;;;;;;;16.63;9.30;;;;;;;;;;5058648;28;20465;-73
2021/01/25 02:35:44;;;;;;;14.90;8.83;;;;;;;;;;5058333;28;20910;-73
2021/01/25 02:38:12;;;;;;;13.50;8.40;;;;;;;;;;5057964;28;20490;-73
2021/01/25 02:40:40;;;;;;;10.90;6.13;;;;;;;;;;5057854;28;20567;-73
2021/01/25 02:43:08;;;;;;;15.10;8.10;;;;;;;;;;5057374;28;20527;-73
2021/01/25 02:45:44;;;;;;;18.23;9.10;;;;;;;;;;5058075;28;20477;-73
2021/01/25 02:48:25;;;;;;;13.63;9.50;;;;;;;;;;5057721;28;20488;-73
2021/01/25 02:50:58;;;;;;;11.77;8.03;;;;;;;;;;5056999;28;20482;-73
2021/01/25 02:53:31;;;;;;;16.33;10.23;;;;;;;;;;5058509;28;20711;-73
2021/01/25 02:55:59;;;;;;;16.77;9.80;;;;;;;;;;5058324;28;20524;-73
2021/01/25 02:58:28;;;;;;;14.93;9.90;;;;;;;;;;5057779;28;20909;-73
2021/01/25 03:01:00;;;;;;;15.70;9.83;;;;;;;;;;5057832;28;20648;-73
2021/01/25 03:03:33;;;;;;;18.20;9.97;;;;;;;;;;5057146;28;20469;-73
2021/01/25 03:06:04;;;;;;;14.97;10.13;;;;;;;;;;5056975;28;20722;-73
2021/01/25 03:08:31;;;;;;;14.60;10.30;;;;;;;;;;5058467;28;20461;-72
2021/01/25 03:11:02;;;;;;;15.73;9.97;;;;;;;;;;5057771;28;20459;-74
2021/01/25 03:13:30;;;;;;;18.03;11.90;;;;;;;;;;5057892;28;20508;-73
2021/01/25 03:15:59;;;;;;;19.57;11.73;;;;;;;;;;5057761;28;20562;-73
2021/01/25 03:18:27;;;;;;;19.33;10.70;;;;;;;;;;5057671;28;20545;-73
2021/01/25 03:20:56;;;;;;;16.57;11.60;;;;;;;;;;5057866;28;20494;-74
2021/01/25 03:23:29;;;;;;;16.33;11.07;;;;;;;;;;5057533;28;20549;-72
2021/01/25 03:26:01;;;;;;;18.40;12.03;;;;;;;;;;5057287;28;20548;-73
2021/01/25 03:28:30;;;;;;;18.40;12.67;;;;;;;;;;5038844;28;20469;-73
2021/01/25 03:31:00;;;;;;;9.97;7.60;;;;;;;;;;5057459;28;20539;-73
2021/01/25 03:33:27;;;;;;;33.10;12.03;;;;;;;;;;5056479;28;20452;-73
2021/01/25 03:35:55;;;;;;;20.30;13.07;;;;;;;;;;5057450;28;20797;-73
2021/01/25 03:38:22;;;;;;;17.80;12.70;;;;;;;;;;5056885;28;20462;-73
2021/01/25 03:40:50;;;;;;;17.03;12.37;;;;;;;;;;5057114;28;20486;-73
2021/01/25 03:43:17;;;;;;;19.33;12.83;;;;;;;;;;5057065;28;20503;-73
2021/01/25 03:45:46;;;;;;;23.27;14.03;;;;;;;;;;5057487;28;20502;-74
2021/01/25 03:48:14;;;;;;;18.60;12.77;;;;;;;;;;5057344;28;20462;-74
2021/01/25 03:50:41;;;;;;;20.97;13.80;;;;;;;;;;5056928;28;20760;-74
2021/01/25 03:53:10;;;;;;;24.67;13.70;;;;;;;;;;5057145;28;20480;-74
2021/01/25 03:55:38;;;;;;;18.13;12.73;;;;;;;;;;5057118;28;20916;-73
2021/01/25 03:58:08;;;;;;;22.70;12.80;;;;;;;;;;5057656;28;20457;-73
2021/01/25 04:00:36;;;;;;;19.73;12.77;;;;;;;;;;5056713;28;20497;-73
2021/01/25 04:03:05;;;;;;;23.50;14.77;;;;;;;;;;5056875;28;20469;-73
2021/01/25 04:05:33;;;;;;;22.00;13.67;;;;;;;;;;5057172;28;20472;-73
2021/01/25 04:08:01;;;;;;;19.07;13.87;;;;;;;;;;5056921;28;20492;-73
2021/01/25 04:10:28;;;;;;;21.50;15.57;;;;;;;;;;5056702;28;20447;-72
2021/01/25 04:12:57;;;;;;;18.07;12.30;;;;;;;;;;5057231;28;20757;-73
2021/01/25 04:15:32;;;;;;;19.67;14.13;;;;;;;;;;5055382;28;20459;-72
2021/01/25 04:17:59;;;;;;;20.70;14.67;;;;;;;;;;5056886;28;20519;-74
2021/01/25 04:20:30;;;;;;;20.47;13.37;;;;;;;;;;5056398;28;20485;-74
2021/01/25 04:22:59;;;;;;;21.43;14.20;;;;;;;;;;5072592;28;20893;-73
2021/01/25 04:25:31;;;;;;;19.37;13.37;;;;;;;;;;5076191;28;20457;-73
2021/01/25 04:28:04;;;;;;;20.43;14.43;;;;;;;;;;5076166;28;20460;-72
2021/01/25 04:30:49;;;;;;;21.50;13.43;;;;;;;;;;5075707;28;20450;-74
2021/01/25 04:33:31;;;;;;;21.53;13.53;;;;;;;;;;5075679;28;20461;-73
2021/01/25 04:36:11;;;;;;;16.80;12.90;;;;;;;;;;5076479;28;20454;-74
2021/01/25 04:38:46;;;;;;;21.30;12.13;;;;;;;;;;5076152;28;20907;-73
2021/01/25 04:41:32;;;;;;;17.97;11.70;;;;;;;;;;5076271;28;20491;-73
2021/01/25 04:44:02;;;;;;;15.63;12.50;;;;;;;;;;5075950;28;20472;-72
2021/01/25 04:46:50;;;;;;;14.20;10.43;;;;;;;;;;5075888;28;20453;-74
2021/01/25 04:49:18;;;;;;;13.93;10.30;;;;;;;;;;5075898;28;20519;-73
2021/01/25 04:51:50;;;;;;;16.70;12.07;;;;;;;;;;5076783;28;20865;-73
2021/01/25 04:54:17;;;;;;;25.47;12.47;;;;;;;;;;5076767;28;20457;-74
2021/01/25 04:57:08;;;;;;;18.00;11.83;;;;;;;;;;5077353;28;20476;-74
2021/01/25 04:59:43;;;;;;;17.23;11.53;;;;;;;;;;5071836;28;20517;-74
2021/01/25 05:02:19;;;;;;;16.67;11.40;;;;;;;;;;5076565;28;20709;-73
2021/01/25 05:04:48;;;;;;;14.73;9.80;;;;;;;;;;5076453;28;20449;-74
2021/01/25 05:07:30;;;;;;;17.10;11.10;;;;;;;;;;5078851;28;20456;-73
2021/01/25 05:09:58;;;;;;;16.70;10.30;;;;;;;;;;5080003;28;20479;-73
2021/01/25 05:12:26;;;;;;;15.90;12.40;;;;;;;;;;5079870;28;20456;-73
2021/01/25 05:14:56;;;;;;;14.47;10.70;;;;;;;;;;5079789;28;20744;-72
2021/01/25 05:17:26;;;;;;;18.70;12.27;;;;;;;;;;5079906;28;20488;-73
2021/01/25 05:19:58;;;;;;;16.00;11.13;;;;;;;;;;5079623;28;20489;-73
2021/01/25 05:22:32;;;;;;;15.90;10.00;;;;;;;;;;5079852;28;20449;-72
2021/01/25 05:24:59;;;;;;;17.13;9.70;;;;;;;;;;5079320;28;20470;-74
2021/01/25 05:27:38;;;;;;;17.70;11.20;;;;;;;;;;5080222;28;20457;-73
2021/01/25 05:30:10;;;;;;;19.20;11.60;;;;;;;;;;5079233;28;20471;-74
2021/01/25 05:32:47;;;;;;;15.23;10.57;;;;;;;;;;5079963;28;20896;-74
2021/01/25 05:35:18;;;;;;;20.90;12.00;;;;;;;;;;5079424;28;20468;-74
2021/01/25 05:37:52;;;;;;;19.87;13.73;;;;;;;;;;5079592;28;20475;-74
2021/01/25 05:40:21;;;;;;;15.30;10.50;;;;;;;;;;5078865;28;20591;-74
2021/01/25 05:42:49;;;;;;;13.77;10.57;;;;;;;;;;5078828;28;20522;-73
2021/01/25 05:45:17;;;;;;;16.40;11.20;;;;;;;;;;5078851;28;20533;-73
2021/01/25 05:47:45;;;;;;;13.83;11.00;;;;;;;;;;5078807;28;20464;-73
2021/01/25 05:50:13;;;;;;;15.40;10.00;;;;;;;;;;5078373;28;20517;-73
2021/01/25 05:52:46;;;;;;;16.97;11.50;;;;;;;;;;5079008;28;20886;-74
2021/01/25 05:55:15;;;;;;;17.30;10.67;;;;;;;;;;5077294;28;20731;-73
2021/01/25 05:57:42;;;;;;;14.07;10.10;;;;;;;;;;5079069;28;20456;-73
2021/01/25 06:00:11;;;;;;;16.37;9.87;;;;;;;;;;5078297;28;20900;-73
2021/01/25 06:02:41;;;;;;;20.50;12.43;;;;;;;;;;5078306;28;20502;-73
2021/01/25 06:05:10;;;;;;;14.20;10.30;;;;;;;;;;5078307;28;20495;-73
2021/01/25 06:07:39;;;;;;;19.33;10.57;;;;;;;;;;5078538;28;20496;-73
2021/01/25 06:10:10;;;;;;;16.87;11.23;;;;;;;;;;5077957;28;20684;-74
2021/01/25 06:12:40;;;;;;;18.73;10.77;;;;;;;;;;5077782;28;20857;-74
2021/01/25 06:15:10;;;;;;;15.77;10.30;;;;;;;;;;5077089;28;21109;-74
2021/01/25 06:17:39;;;;;;;15.43;10.40;;;;;;;;;;5076889;28;20866;-74
2021/01/25 06:20:07;;;;;;;14.97;8.90;;;;;;;;;;5077130;28;20485;-73
2021/01/25 06:22:35;;;;;;;15.47;9.87;;;;;;;;;;5077785;28;20526;-74
2021/01/25 06:25:03;;;;;;;21.27;10.70;;;;;;;;;;5078158;28;20767;-74
2021/01/25 06:27:38;;;;;;;21.87;11.73;;;;;;;;;;5077937;28;20465;-74
2021/01/25 06:30:24;;;;;;;15.53;10.77;;;;;;;;;;5077458;28;20460;-74
2021/01/25 06:32:58;;;;;;;16.93;10.37;;;;;;;;;;5077603;28;20457;-74
2021/01/25 06:35:33;;;;;;;23.10;10.57;;;;;;;;;;5077464;28;20472;-73
2021/01/25 06:38:02;;;;;;;14.77;10.67;;;;;;;;;;5077391;28;20532;-73
2021/01/25 06:40:31;;;;;;;15.07;10.47;;;;;;;;;;5076579;28;20963;-74
2021/01/25 06:42:58;;;;;;;15.50;9.00;;;;;;;;;;5076943;28;20468;-72
2021/01/25 06:45:27;;;;;;;17.00;10.90;;;;;;;;;;5075677;28;20473;-74
2021/01/25 06:47:56;;;;;;;22.43;11.53;;;;;;;;;;5069358;28;20454;-74
2021/01/25 06:50:27;;;;;;;18.13;11.20;;;;;;;;;;5075875;28;20460;-74
2021/01/25 06:52:55;;;;;;;15.70;11.10;;;;;;;;;;5073482;28;20469;-73
2021/01/25 06:55:25;;;;;;;15.47;10.83;;;;;;;;;;5075163;28;20489;-74
2021/01/25 06:57:52;;;;;;;17.63;11.00;;;;;;;;;;5076253;28;20759;-73
2021/01/25 07:00:20;;;;;;;15.27;10.90;;;;;;;;;;5075524;28;20523;-74
2021/01/25 07:02:57;;;;;;;16.93;11.40;;;;;;;;;;5075393;28;20446;-73
2021/01/25 07:05:27;;;;;;;13.07;8.27;;;;;;;;;;5075866;28;20548;-73
2021/01/25 07:08:11;;;;;;;20.30;11.90;;;;;;;;;;5075322;28;20522;-73
2021/01/25 07:10:39;;;;;;;14.80;9.63;;;;;;;;;;5074279;28;20459;-73
2021/01/25 07:13:20;;;;;;;14.40;10.37;;;;;;;;;;5075053;28;20472;-73
2021/01/25 07:15:54;;;;;;;15.30;9.97;;;;;;;;;;5076951;28;20461;-73
2021/01/25 07:18:23;;;;;;;16.60;10.93;;;;;;;;;;5075344;28;20830;-73
2021/01/25 07:21:11;;;;;;;15.63;11.80;;;;;;;;;;5076272;28;20754;-73
2021/01/25 07:23:45;;;;;;;15.50;10.50;;;;;;;;;;5075965;28;20460;-72
2021/01/25 07:26:14;;;;;;;15.23;10.70;;;;;;;;;;5076328;28;20464;-73
2021/01/25 07:28:43;;;;;;;19.80;10.90;;;;;;;;;;5075311;28;20537;-72
2021/01/25 07:31:11;;;;;;;16.97;11.03;;;;;;;;;;5075913;28;20461;-73
2021/01/25 07:33:40;;;;;;;16.43;11.67;;;;;;;;;;5074507;28;20525;-72
2021/01/25 07:36:09;;;;;;;20.07;11.77;;;;;;;;;;5057361;28;20457;-73
2021/01/25 07:38:38;;;;;;;18.37;12.63;;;;;;;;;;5076086;28;20522;-72
2021/01/25 07:41:07;;;;;;;17.90;11.67;;;;;;;;;;5073732;28;20563;-74
2021/01/25 07:43:34;;;;;;;19.67;11.07;;;;;;;;;;5076288;28;20553;-72
2021/01/25 07:46:06;;;;;;;17.13;10.60;;;;;;;;;;5076272;28;20457;-73
2021/01/25 07:48:58;;;;;;;15.40;10.60;;;;;;;;;;5070023;28;20453;-73
2021/01/25 07:51:26;;;;;;;17.63;10.57;;;;;;;;;;5075953;28;20468;-73
2021/01/25 07:53:54;;;;;;;15.87;9.67;;;;;;;;;;5075380;28;20555;-73
2021/01/25 07:56:23;;;;;;;17.60;12.13;;;;;;;;;;5056549;28;20485;-73
2021/01/25 07:58:50;;;;;;;16.53;12.13;;;;;;;;;;5057560;28;20819;-74
2021/01/25 08:01:21;;;;;;;15.20;9.70;;;;;;;;;;5056711;28;20490;-74
2021/01/25 08:03:53;;;;;;;18.17;10.30;;;;;;;;;;5056888;28;20461;-73
2021/01/25 08:06:24;;;;;;;16.43;11.13;;;;;;;;;;5056816;28;20493;-73
2021/01/25 08:08:57;;;;;;;16.50;11.00;;;;;;;;;;5072035;28;20812;-73
2021/01/25 08:11:26;;;;;;;22.20;12.67;;;;;;;;;;5076833;28;20547;-72
2021/01/25 08:14:18;;;;;;;26.63;11.20;;;;;;;;;;5076088;28;20469;-72
2021/01/25 08:16:57;;;;;;;24.17;13.50;;;;;;;;;;5076345;28;20457;-72
2021/01/25 08:19:28;;;;;;;20.00;12.77;;;;;;;;;;5075664;28;20536;-72
2021/01/25 08:21:59;;;;;;;14.20;10.10;;;;;;;;;;5075682;28;20481;-72
2021/01/25 08:24:27;;;;;;;21.00;10.93;;;;;;;;;;5075649;28;20444;-73
2021/01/25 08:27:06;;;;;;;22.30;11.83;;;;;;;;;;5062807;28;20460;-72
2021/01/25 08:29:37;;;;;;;19.17;12.10;;;;;;;;;;5075711;28;20461;-73
2021/01/25 08:32:18;;;;;;;18.60;11.47;;;;;;;;;;5075776;28;20856;-74
2021/01/25 08:35:11;;;;;;;19.93;12.10;;;;;;;;;;5075752;28;20552;-73
2021/01/25 08:37:41;;;;;;;23.57;12.60;;;;;;;;;;5072632;28;20873;-73
2021/01/25 08:40:25;;;;;;;18.47;12.07;;;;;;;;;;5076386;28;20554;-72
2021/01/25 08:43:01;;;;;;;16.60;10.97;;;;;;;;;;5078996;28;20561;-72
2021/01/25 08:48:25;;;;;;;21.97;13.77;;;;;;;;;;5079085;28;20452;-73
2021/01/25 08:51:15;;;;;;;23.20;14.37;;;;;;;;;;5079111;28;20459;-72
2021/01/25 08:53:46;;;;;;;19.60;13.43;;;;;;;;;;5077495;28;20459;-73
2021/01/25 08:59:27;;;;;;;19.90;12.90;;;;;;;;;;5077361;28;20452;-73
2021/01/25 09:04:42;;;;;;;18.00;10.80;;;;;;;;;;5058749;28;20799;-73
2021/01/25 09:07:19;;;;;;;17.10;9.33;;;;;;;;;;5045195;28;20449;-73
2021/01/25 09:09:47;;;;;;;21.70;10.20;;;;;;;;;;5079367;28;20483;-72
2021/01/25 09:12:28;;;;;;;13.73;8.47;;;;;;;;;;5078258;28;20717;-73
2021/01/25 09:18:04;;;;;;;11.20;7.07;;;;;;;;;;5073524;28;20457;-73
2021/01/25 09:20:32;;;;;;;18.00;11.13;;;;;;;;;;5078135;28;20584;-71
2021/01/25 09:23:02;;;;;;;12.23;8.23;;;;;;;;;;5077806;28;20484;-72
2021/01/25 09:25:33;;;;;;;16.27;9.07;;;;;;;;;;5064150;28;20489;-72
2021/01/25 09:28:00;;;;;;;20.50;10.53;;;;;;;;;;5058036;28;20450;-73
2021/01/25 09:30:33;;;;;;;14.40;9.17;;;;;;;;;;5064328;28;20468;-74
2021/01/25 09:33:03;;;;;;;14.77;9.73;;;;;;;;;;5078019;28;20548;-74
2021/01/25 09:35:33;;;;;;;22.57;10.63;;;;;;;;;;5079203;28;20835;-73
2021/01/25 09:38:00;;;;;;;15.60;10.17;;;;;;;;;;5078703;28;20554;-73
2021/01/25 09:40:34;;;;;;;15.20;9.10;;;;;;;;;;5078411;28;20491;-73
2021/01/25 09:43:03;;;;;;;29.43;15.27;;;;;;;;;;5077728;28;20461;-74
2021/01/25 09:45:30;;;;;;;21.93;10.63;;;;;;;;;;5077891;28;20921;-74
2021/01/25 09:48:00;;;;;;;14.60;10.33;;;;;;;;;;5077149;28;20473;-73
2021/01/25 09:50:28;;;;;;;20.60;10.70;;;;;;;;;;5078469;28;20469;-73
2021/01/25 09:52:58;;;;;;;16.63;10.60;;;;;;;;;;5077196;28;20579;-73
2021/01/25 09:55:25;;;;;;;20.87;10.60;;;;;;;;;;5078988;28;20476;-73
2021/01/25 09:57:53;;;;;;;12.87;8.90;;;;;;;;;;5061252;28;20455;-73
2021/01/25 10:00:21;;;;;;;19.10;9.70;;;;;;;;;;5058228;28;20550;-72
2021/01/25 10:02:48;;;;;;;16.07;10.63;;;;;;;;;;5058158;28;20521;-72
2021/01/25 10:05:18;;;;;;;16.83;10.57;;;;;;;;;;5073605;28;20452;-73
2021/01/25 10:07:53;;;;;;;13.23;7.77;;;;;;;;;;5076970;28;20858;-73
2021/01/25 10:10:21;;;;;;;15.37;10.27;;;;;;;;;;5065635;28;20677;-73
2021/01/25 10:12:48;;;;;;;19.60;10.23;;;;;;;;;;5058045;28;20494;-73
2021/01/25 10:15:17;;;;;;;25.37;10.10;;;;;;;;;;5070992;28;20866;-74
2021/01/25 10:17:44;;;;;;;20.67;12.00;;;;;;;;;;5058724;28;20560;-73
2021/01/25 10:20:13;;;;;;;19.83;11.73;;;;;;;;;;5059413;28;20564;-74
2021/01/25 10:22:41;;;;;;;18.07;10.50;;;;;;;;;;5066316;28;20493;-73
2021/01/25 10:25:15;;;;;;;18.30;11.83;;;;;;;;;;5073890;28;20824;-73
2021/01/25 10:27:43;;;;;;;17.83;11.03;;;;;;;;;;5075276;28;20556;-73
2021/01/25 10:30:11;;;;;;;18.77;10.90;;;;;;;;;;5076535;28;20542;-73
2021/01/25 10:32:39;;;;;;;23.90;14.27;;;;;;;;;;5077044;28;20471;-73
2021/01/25 10:35:08;;;;;;;22.00;12.80;;;;;;;;;;5076602;28;20463;-73
2021/01/25 10:37:35;;;;;;;20.00;12.27;;;;;;;;;;5077690;28;20587;-73
2021/01/25 10:40:03;;;;;;;17.47;11.53;;;;;;;;;;5071848;28;20482;-73
2021/01/25 10:42:34;;;;;;;18.80;13.13;;;;;;;;;;5076230;28;20463;-73
2021/01/25 10:45:01;;;;;;;17.67;11.73;;;;;;;;;;5082319;28;20461;-73
2021/01/25 10:47:29;;;;;;;19.60;11.90;;;;;;;;;;5072877;28;20459;-73
2021/01/25 10:49:56;;;;;;;20.80;10.60;;;;;;;;;;5059820;28;20478;-73
2021/01/25 10:52:24;;;;;;;26.00;13.73;;;;;;;;;;5074203;28;20499;-73
2021/01/25 10:54:56;;;;;;;19.20;11.40;;;;;;;;;;5075526;28;20457;-73
2021/01/25 10:57:24;;;;;;;28.37;12.10;;;;;;;;;;5056078;28;20458;-73
2021/01/25 10:59:53;;;;;;;18.43;10.53;;;;;;;;;;5067092;28;20555;-73
2021/01/25 11:02:20;;;;;;;19.70;13.30;;;;;;;;;;5076830;28;20467;-73
2021/01/25 11:04:48;;;;;;;18.97;11.83;;;;;;;;;;5075358;28;20493;-73
2021/01/25 11:07:16;;;;;;;22.80;13.50;;;;;;;;;;5071976;28;20458;-72
2021/01/25 11:09:43;;;;;;;21.43;9.90;;;;;;;;;;5074750;28;20499;-73
2021/01/25 11:12:11;;;;;;;20.23;11.77;;;;;;;;;;5075750;28;20490;-73
2021/01/25 11:14:38;;;;;;;19.80;12.17;;;;;;;;;;5075210;28;20530;-74
2021/01/25 11:17:06;;;;;;;18.67;10.70;;;;;;;;;;5076431;28;20956;-73
2021/01/25 11:19:35;;;;;;;24.27;12.43;;;;;;;;;;5073078;28;20879;-73
2021/01/25 11:22:03;;;;;;;15.77;9.23;;;;;;;;;;5075473;28;20456;-73
2021/01/25 11:24:30;;;;;;;21.10;11.50;;;;;;;;;;5075134;28;20453;-73
2021/01/25 11:27:00;;;;;;;19.20;11.53;;;;;;;;;;5075040;28;20598;-73
2021/01/25 11:29:30;;;;;;;15.27;9.70;;;;;;;;;;5068660;28;20454;-73
2021/01/25 11:32:02;;;;;;;19.77;11.07;;;;;;;;;;5055665;28;21012;-74
2021/01/25 11:34:45;;;;;;;16.40;9.67;;;;;;;;;;5068964;28;20495;-73
2021/01/25 11:37:14;;;;;;;16.50;10.70;;;;;;;;;;5075642;28;20457;-73
2021/01/25 11:39:43;;;;;;;17.57;10.77;;;;;;;;;;5063393;28;20898;-73
2021/01/25 11:42:13;;;;;;;24.03;10.80;;;;;;;;;;5075621;28;20464;-73
2021/01/25 11:44:41;;;;;;;18.13;10.23;;;;;;;;;;5076325;28;20920;-73
2021/01/25 11:47:11;;;;;;;15.80;11.10;;;;;;;;;;5074313;28;20457;-73
2021/01/25 11:49:39;;;;;;;16.50;9.60;;;;;;;;;;5074064;28;20512;-73
2021/01/25 11:52:08;;;;;;;18.70;12.00;;;;;;;;;;5074840;28;20853;-73
2021/01/25 11:54:36;;;;;;;15.67;10.50;;;;;;;;;;5075125;28;20753;-73
2021/01/25 11:57:04;;;;;;;20.10;11.43;;;;;;;;;;5063661;28;20540;-73
2021/01/25 11:59:36;;;;;;;15.00;10.00;;;;;;;;;;5075451;28;20768;-73
2021/01/25 12:02:04;;;;;;;17.87;10.90;;;;;;;;;;5073723;28;20491;-73
2021/01/25 12:04:32;;;;;;;17.10;8.90;;;;;;;;;;5074609;28;20529;-73
2021/01/25 12:06:59;;;;;;;17.13;10.57;;;;;;;;;;5075471;28;21063;-73
2021/01/25 12:09:30;;;;;;;18.30;11.93;;;;;;;;;;5073698;28;20527;-73
2021/01/25 12:12:05;;;;;;;16.27;11.33;;;;;;;;;;5073060;28;20526;-74
2021/01/25 12:14:32;;;;;;;17.27;10.37;;;;;;;;;;5074316;28;20602;-73
2021/01/25 12:17:00;;;;;;;15.33;9.53;;;;;;;;;;5079818;28;21037;-74
2021/01/25 12:19:28;;;;;;;12.83;8.50;;;;;;;;;;5079570;28;20853;-73
2021/01/25 12:22:00;;;;;;;18.93;11.60;;;;;;;;;;5079161;28;20483;-73
2021/01/25 12:24:28;;;;;;;19.40;10.40;;;;;;;;;;5080084;28;20870;-72
2021/01/25 12:26:55;;;;;;;21.60;12.33;;;;;;;;;;5079217;28;20461;-73
2021/01/25 12:29:24;;;;;;;20.87;11.20;;;;;;;;;;5078587;28;20509;-72
2021/01/25 12:31:51;;;;;;;18.40;9.70;;;;;;;;;;5079629;28;20560;-72
2021/01/25 12:34:25;;;;;;;17.60;9.00;;;;;;;;;;5075603;28;20449;-73
2021/01/25 12:36:53;;;;;;;18.73;10.67;;;;;;;;;;5075764;28;20461;-73
2021/01/25 12:39:20;;;;;;;16.47;9.17;;;;;;;;;;5078769;28;20445;-73
2021/01/25 12:41:48;;;;;;;17.00;11.10;;;;;;;;;;5078311;28;21002;-73
2021/01/25 12:44:17;;;;;;;19.73;12.10;;;;;;;;;;5066966;28;20510;-73
2021/01/25 12:46:49;;;;;;;20.27;11.90;;;;;;;;;;5078711;28;20461;-73
2021/01/25 12:49:19;;;;;;;22.20;14.47;;;;;;;;;;5070593;28;20734;-73
2021/01/25 12:51:47;;;;;;;21.30;12.30;;;;;;;;;;5078137;28;20553;-74
2021/01/25 12:54:15;;;;;;;20.13;11.37;;;;;;;;;;5076642;28;20510;-73
2021/01/25 12:56:48;;;;;;;19.20;11.63;;;;;;;;;;5060714;28;20457;-74
2021/01/25 12:59:43;;;;;;;21.00;11.83;;;;;;;;;;5064340;28;20452;-73
2021/01/25 13:02:12;;;;;;;21.37;12.80;;;;;;;;;;5070235;28;20453;-74
2021/01/25 13:04:40;;;;;;;16.77;11.70;;;;;;;;;;5073944;28;20446;-74
2021/01/25 13:07:10;;;;;;;20.10;10.87;;;;;;;;;;5071639;28;20454;-74
2021/01/25 13:09:39;;;;;;;22.67;13.10;;;;;;;;;;5066925;28;20439;-73
2021/01/25 13:12:07;;;;;;;16.93;10.50;;;;;;;;;;5063996;28;20904;-74
2021/01/25 13:14:35;;;;;;;15.13;9.47;;;;;;;;;;5070626;28;20450;-73
2021/01/25 13:17:03;;;;;;;17.93;11.23;;;;;;;;;;5070135;28;20451;-74
2021/01/25 13:19:34;;;;;;;15.90;9.37;;;;;;;;;;5070793;28;20472;-73
2021/01/25 13:22:01;;;;;;;16.27;9.00;;;;;;;;;;5075167;28;20481;-73
2021/01/25 13:24:29;;;;;;;11.40;7.13;;;;;;;;;;5063948;28;20554;-73
2021/01/25 13:26:56;;;;;;;12.57;8.30;;;;;;;;;;5057199;28;20528;-73
2021/01/25 13:29:26;;;;;;;13.03;8.63;;;;;;;;;;5069740;28;20480;-74
2021/01/25 13:31:53;;;;;;;13.80;7.63;;;;;;;;;;5078064;28;20552;-73
2021/01/25 13:34:21;;;;;;;13.90;8.40;;;;;;;;;;5077257;28;20545;-72
2021/01/25 13:36:51;;;;;;;12.83;9.07;;;;;;;;;;5077212;28;20461;-73
2021/01/25 13:39:19;;;;;;;15.37;9.30;;;;;;;;;;5077169;28;20473;-74
2021/01/25 13:41:49;;;;;;;16.33;8.80;;;;;;;;;;5077148;28;20500;-74
2021/01/25 13:44:16;;;;;;;16.97;11.10;;;;;;;;;;5076236;28;20880;-73
2021/01/25 13:46:45;;;;;;;18.57;11.50;;;;;;;;;;5077311;28;20832;-74
2021/01/25 13:49:12;;;;;;;15.50;9.67;;;;;;;;;;5076394;28;20467;-73
2021/01/25 13:51:40;;;;;;;14.47;9.57;;;;;;;;;;5076944;28;20904;-74
2021/01/25 13:54:08;;;;;;;16.73;10.07;;;;;;;;;;5076234;28;20445;-74
2021/01/25 13:56:35;;;;;;;15.70;11.10;;;;;;;;;;5076828;28;20539;-74
2021/01/25 13:59:03;;;;;;;18.00;11.83;;;;;;;;;;5076076;28;20461;-74
2021/01/25 14:01:31;;;;;;;15.67;10.03;;;;;;;;;;5076773;28;20510;-74
2021/01/25 14:03:58;;;;;;;18.90;11.80;;;;;;;;;;5073994;28;20457;-74
2021/01/25 14:06:26;;;;;;;19.07;12.63;;;;;;;;;;5076541;28;20458;-74
2021/01/25 14:08:59;;;;;;;18.30;11.70;;;;;;;;;;5077692;28;20779;-74
2021/01/25 14:11:28;;;;;;;21.00;12.80;;;;;;;;;;5078226;28;20636;-74
2021/01/25 14:13:55;;;;;;;22.40;12.20;;;;;;;;;;5076497;28;21085;-74
2021/01/25 14:16:23;;;;;;;21.00;12.50;;;;;;;;;;5076218;28;20525;-73
2021/01/25 14:18:50;;;;;;;19.90;10.80;;;;;;;;;;5067405;28;20497;-73
2021/01/25 14:21:19;;;;;;;21.77;12.03;;;;;;;;;;5068014;28;20911;-74
2021/01/25 14:23:46;;;;;;;17.83;10.67;;;;;;;;;;5073412;28;20445;-73
2021/01/25 14:26:13;;;;;;;17.07;11.20;;;;;;;;;;5076879;28;20982;-73
2021/01/25 14:28:45;;;;;;;21.10;12.30;;;;;;;;;;5074125;28;20878;-73
2021/01/25 14:31:13;;;;;;;23.63;13.23;;;;;;;;;;5075586;28;20474;-73
2021/01/25 14:33:40;;;;;;;17.97;12.50;;;;;;;;;;5076710;28;20727;-73
2021/01/25 14:36:08;;;;;;;20.07;11.40;;;;;;;;;;5075640;28;20473;-74
2021/01/25 14:38:39;;;;;;;18.33;12.73;;;;;;;;;;5073394;28;20520;-74
2021/01/25 14:41:12;;;;;;;24.40;12.97;;;;;;;;;;5075740;28;20650;-73
2021/01/25 14:43:42;;;;;;;22.43;13.67;;;;;;;;;;5075997;28;20550;-75
2021/01/25 14:46:19;;;;;;;24.40;13.27;;;;;;;;;;5076183;28;20459;-74
2021/01/25 14:48:51;;;;;;;21.70;13.33;;;;;;;;;;5075487;28;21117;-74
2021/01/25 14:51:19;;;;;;;23.67;14.40;;;;;;;;;;5075737;28;20466;-73